sensor_id;sensor_type;location;lat;lon;timestamp;P1;durP1;ratioP1;P2;durP2;ratioP2
40847;SDS011;26570;50.962;5.340;2024-03-23T00:55:43;16.03;;;1.60;;
40847;SDS011;26570;50.962;5.340;2024-03-23T00:58:51;8.77;;;1.10;;
40847;SDS011;26570;50.962;5.340;2024-03-23T01:01:46;12.70;;;2.50;;
40847;SDS011;26570;50.962;5.340;2024-03-23T01:05:00;17.33;;;1.40;;
40847;SDS011;26570;50.962;5.340;2024-03-23T01:08:09;13.57;;;1.50;;
40847;SDS011;26570;50.962;5.340;2024-03-23T01:11:04;15.57;;;1.87;;
40847;SDS011;26570;50.962;5.340;2024-03-23T01:13:53;8.67;;;1.10;;
40847;SDS011;26570;50.962;5.340;2024-03-23T01:16:40;14.60;;;1.57;;
40847;SDS011;26570;50.962;5.340;2024-03-23T01:19:48;15.03;;;1.50;;
40847;SDS011;26570;50.962;5.340;2024-03-23T01:22:37;17.07;;;1.37;;
40847;SDS011;26570;50.962;5.340;2024-03-23T01:25:23;15.80;;;1.70;;
40847;SDS011;26570;50.962;5.340;2024-03-23T01:28:12;9.37;;;1.30;;
40847;SDS011;26570;50.962;5.340;2024-03-23T01:30:57;9.77;;;1.10;;
40847;SDS011;26570;50.962;5.340;2024-03-23T01:33:43;12.87;;;1.50;;
40847;SDS011;26570;50.962;5.340;2024-03-23T01:36:38;10.63;;;1.20;;
40847;SDS011;26570;50.962;5.340;2024-03-23T01:39:26;12.20;;;1.33;;
40847;SDS011;26570;50.962;5.340;2024-03-23T01:42:34;7.17;;;0.90;;
40847;SDS011;26570;50.962;5.340;2024-03-23T01:45:43;14.73;;;1.33;;
40847;SDS011;26570;50.962;5.340;2024-03-23T01:48:32;13.73;;;1.70;;
40847;SDS011;26570;50.962;5.340;2024-03-23T01:51:18;15.33;;;1.10;;
40847;SDS011;26570;50.962;5.340;2024-03-23T01:54:04;10.57;;;1.10;;
40847;SDS011;26570;50.962;5.340;2024-03-23T01:56:59;13.57;;;0.90;;
40847;SDS011;26570;50.962;5.340;2024-03-23T02:00:10;10.87;;;0.73;;
40847;SDS011;26570;50.962;5.340;2024-03-23T02:02:58;8.67;;;0.97;;
40847;SDS011;26570;50.962;5.340;2024-03-23T02:06:04;12.70;;;1.30;;
40847;SDS011;26570;50.962;5.340;2024-03-23T02:08:51;16.33;;;2.07;;
40847;SDS011;26570;50.962;5.340;2024-03-23T02:11:40;16.67;;;2.00;;
40847;SDS011;26570;50.962;5.340;2024-03-23T02:14:49;18.87;;;3.47;;
40847;SDS011;26570;50.962;5.340;2024-03-23T02:17:35;28.03;;;4.23;;
40847;SDS011;26570;50.962;5.340;2024-03-23T02:20:24;20.63;;;3.60;;
40847;SDS011;26570;50.962;5.340;2024-03-23T02:23:13;17.10;;;2.20;;
40847;SDS011;26570;50.962;5.340;2024-03-23T02:26:06;9.93;;;1.17;;
40847;SDS011;26570;50.962;5.340;2024-03-23T02:28:52;13.13;;;1.37;;
40847;SDS011;26570;50.962;5.340;2024-03-23T02:31:46;17.47;;;2.10;;
40847;SDS011;26570;50.962;5.340;2024-03-23T02:34:57;16.37;;;2.07;;
40847;SDS011;26570;50.962;5.340;2024-03-23T02:37:43;11.57;;;1.70;;
40847;SDS011;26570;50.962;5.340;2024-03-23T02:40:32;19.20;;;1.87;;
40847;SDS011;26570;50.962;5.340;2024-03-23T02:43:21;12.47;;;1.77;;
40847;SDS011;26570;50.962;5.340;2024-03-23T02:46:07;20.30;;;2.00;;
40847;SDS011;26570;50.962;5.340;2024-03-23T02:48:56;12.30;;;1.80;;
40847;SDS011;26570;50.962;5.340;2024-03-23T02:52:07;21.37;;;2.03;;
40847;SDS011;26570;50.962;5.340;2024-03-23T02:54:58;13.37;;;2.17;;
40847;SDS011;26570;50.962;5.340;2024-03-23T02:57:47;21.93;;;2.50;;
40847;SDS011;26570;50.962;5.340;2024-03-23T03:00:32;28.70;;;3.93;;
40847;SDS011;26570;50.962;5.340;2024-03-23T03:03:20;24.80;;;2.93;;
40847;SDS011;26570;50.962;5.340;2024-03-23T03:06:08;16.03;;;2.10;;
40847;SDS011;26570;50.962;5.340;2024-03-23T03:09:07;19.80;;;2.20;;
40847;SDS011;26570;50.962;5.340;2024-03-23T03:12:26;25.30;;;2.70;;
40847;SDS011;26570;50.962;5.340;2024-03-23T03:15:14;16.63;;;2.30;;
40847;SDS011;26570;50.962;5.340;2024-03-23T03:18:01;16.50;;;1.83;;
40847;SDS011;26570;50.962;5.340;2024-03-23T03:21:12;16.00;;;2.20;;
40847;SDS011;26570;50.962;5.340;2024-03-23T03:24:36;19.10;;;1.73;;
40847;SDS011;26570;50.962;5.340;2024-03-23T03:27:23;20.50;;;1.90;;
40847;SDS011;26570;50.962;5.340;2024-03-23T03:30:35;16.50;;;1.90;;
40847;SDS011;26570;50.962;5.340;2024-03-23T03:33:23;9.40;;;1.33;;
40847;SDS011;26570;50.962;5.340;2024-03-23T03:36:08;22.37;;;1.87;;
40847;SDS011;26570;50.962;5.340;2024-03-23T03:38:56;16.37;;;1.90;;
40847;SDS011;26570;50.962;5.340;2024-03-23T03:41:42;15.97;;;1.73;;
40847;SDS011;26570;50.962;5.340;2024-03-23T03:44:33;14.00;;;1.70;;
40847;SDS011;26570;50.962;5.340;2024-03-23T03:47:21;13.47;;;1.17;;
40847;SDS011;26570;50.962;5.340;2024-03-23T03:50:07;14.73;;;1.17;;
40847;SDS011;26570;50.962;5.340;2024-03-23T03:52:56;11.50;;;1.33;;
40847;SDS011;26570;50.962;5.340;2024-03-23T03:55:42;14.83;;;1.50;;
40847;SDS011;26570;50.962;5.340;2024-03-23T03:58:28;12.73;;;1.03;;
40847;SDS011;26570;50.962;5.340;2024-03-23T04:01:17;15.87;;;1.33;;
40847;SDS011;26570;50.962;5.340;2024-03-23T04:04:07;13.90;;;1.33;;
40847;SDS011;26570;50.962;5.340;2024-03-23T04:06:59;20.93;;;1.57;;
40847;SDS011;26570;50.962;5.340;2024-03-23T04:09:51;14.97;;;0.77;;
40847;SDS011;26570;50.962;5.340;2024-03-23T04:12:43;17.90;;;1.30;;
40847;SDS011;26570;50.962;5.340;2024-03-23T04:15:55;13.43;;;1.57;;
40847;SDS011;26570;50.962;5.340;2024-03-23T04:18:43;13.67;;;1.30;;
40847;SDS011;26570;50.962;5.340;2024-03-23T04:21:54;11.80;;;0.97;;
40847;SDS011;26570;50.962;5.340;2024-03-23T04:24:42;8.40;;;0.90;;
40847;SDS011;26570;50.962;5.340;2024-03-23T04:27:29;9.63;;;1.10;;
40847;SDS011;26570;50.962;5.340;2024-03-23T04:30:19;6.10;;;0.90;;
40847;SDS011;26570;50.962;5.340;2024-03-23T04:33:06;10.57;;;1.10;;
40847;SDS011;26570;50.962;5.340;2024-03-23T04:35:53;12.10;;;1.37;;
40847;SDS011;26570;50.962;5.340;2024-03-23T04:38:40;16.93;;;1.13;;
40847;SDS011;26570;50.962;5.340;2024-03-23T04:41:35;13.80;;;1.30;;
40847;SDS011;26570;50.962;5.340;2024-03-23T04:44:23;11.37;;;1.20;;
40847;SDS011;26570;50.962;5.340;2024-03-23T04:47:09;12.57;;;1.30;;
40847;SDS011;26570;50.962;5.340;2024-03-23T04:49:58;12.63;;;1.17;;
40847;SDS011;26570;50.962;5.340;2024-03-23T04:52:48;21.67;;;1.73;;
40847;SDS011;26570;50.962;5.340;2024-03-23T04:55:37;14.27;;;2.20;;
40847;SDS011;26570;50.962;5.340;2024-03-23T04:58:29;15.70;;;2.40;;
40847;SDS011;26570;50.962;5.340;2024-03-23T05:01:18;14.57;;;1.30;;
40847;SDS011;26570;50.962;5.340;2024-03-23T05:04:29;18.67;;;1.83;;
40847;SDS011;26570;50.962;5.340;2024-03-23T05:07:21;15.33;;;1.93;;
40847;SDS011;26570;50.962;5.340;2024-03-23T05:10:32;18.97;;;2.10;;
40847;SDS011;26570;50.962;5.340;2024-03-23T05:13:20;14.53;;;3.07;;
40847;SDS011;26570;50.962;5.340;2024-03-23T05:16:06;25.73;;;4.03;;
40847;SDS011;26570;50.962;5.340;2024-03-23T05:18:52;16.40;;;4.50;;
40847;SDS011;26570;50.962;5.340;2024-03-23T05:21:38;18.60;;;5.43;;
40847;SDS011;26570;50.962;5.340;2024-03-23T05:24:24;23.30;;;6.00;;
40847;SDS011;26570;50.962;5.340;2024-03-23T05:27:09;20.40;;;5.80;;
40847;SDS011;26570;50.962;5.340;2024-03-23T05:29:56;22.43;;;6.53;;
40847;SDS011;26570;50.962;5.340;2024-03-23T05:32:42;24.50;;;6.73;;
40847;SDS011;26570;50.962;5.340;2024-03-23T05:35:28;26.07;;;8.50;;
40847;SDS011;26570;50.962;5.340;2024-03-23T05:38:14;34.20;;;9.07;;
40847;SDS011;26570;50.962;5.340;2024-03-23T05:41:00;30.47;;;8.83;;
40847;SDS011;26570;50.962;5.340;2024-03-23T05:43:46;28.00;;;8.60;;
40847;SDS011;26570;50.962;5.340;2024-03-23T05:46:32;24.90;;;8.70;;
40847;SDS011;26570;50.962;5.340;2024-03-23T05:49:18;28.97;;;8.37;;
40847;SDS011;26570;50.962;5.340;2024-03-23T05:52:04;28.20;;;8.17;;
40847;SDS011;26570;50.962;5.340;2024-03-23T05:54:53;35.67;;;8.87;;
40847;SDS011;26570;50.962;5.340;2024-03-23T05:57:38;32.43;;;9.57;;
40847;SDS011;26570;50.962;5.340;2024-03-23T06:00:24;29.30;;;9.67;;
40847;SDS011;26570;50.962;5.340;2024-03-23T06:03:10;19.60;;;7.90;;
40847;SDS011;26570;50.962;5.340;2024-03-23T06:05:56;39.20;;;9.20;;
40847;SDS011;26570;50.962;5.340;2024-03-23T06:08:42;36.03;;;9.57;;
40847;SDS011;26570;50.962;5.340;2024-03-23T06:11:27;32.50;;;8.03;;
40847;SDS011;26570;50.962;5.340;2024-03-23T06:14:14;31.27;;;9.40;;
40847;SDS011;26570;50.962;5.340;2024-03-23T06:17:00;33.20;;;9.30;;
40847;SDS011;26570;50.962;5.340;2024-03-23T06:19:46;33.30;;;9.33;;
40847;SDS011;26570;50.962;5.340;2024-03-23T06:22:32;33.07;;;9.43;;
40847;SDS011;26570;50.962;5.340;2024-03-23T06:25:18;31.33;;;9.20;;
40847;SDS011;26570;50.962;5.340;2024-03-23T06:28:03;34.40;;;9.83;;
40847;SDS011;26570;50.962;5.340;2024-03-23T06:30:49;37.83;;;8.70;;
40847;SDS011;26570;50.962;5.340;2024-03-23T06:33:35;24.00;;;8.60;;
40847;SDS011;26570;50.962;5.340;2024-03-23T06:36:20;22.53;;;7.93;;
40847;SDS011;26570;50.962;5.340;2024-03-23T06:39:08;22.23;;;7.03;;
40847;SDS011;26570;50.962;5.340;2024-03-23T06:41:56;24.60;;;6.73;;
40847;SDS011;26570;50.962;5.340;2024-03-23T06:44:41;22.97;;;6.93;;
40847;SDS011;26570;50.962;5.340;2024-03-23T06:47:26;17.00;;;5.63;;
40847;SDS011;26570;50.962;5.340;2024-03-23T06:50:11;14.93;;;4.17;;
40847;SDS011;26570;50.962;5.340;2024-03-23T06:52:56;14.80;;;2.70;;
40847;SDS011;26570;50.962;5.340;2024-03-23T06:55:41;13.20;;;2.77;;
40847;SDS011;26570;50.962;5.340;2024-03-23T06:58:26;15.13;;;2.80;;
40847;SDS011;26570;50.962;5.340;2024-03-23T07:01:11;20.13;;;3.13;;
40847;SDS011;26570;50.962;5.340;2024-03-23T07:03:56;14.90;;;3.60;;
40847;SDS011;26570;50.962;5.340;2024-03-23T07:06:44;10.70;;;2.93;;
40847;SDS011;26570;50.962;5.340;2024-03-23T07:09:29;16.20;;;2.10;;
40847;SDS011;26570;50.962;5.340;2024-03-23T07:12:14;18.17;;;3.60;;
40847;SDS011;26570;50.962;5.340;2024-03-23T07:14:59;21.47;;;3.00;;
40847;SDS011;26570;50.962;5.340;2024-03-23T07:17:46;11.97;;;3.13;;
40847;SDS011;26570;50.962;5.340;2024-03-23T07:20:57;13.47;;;2.17;;
40847;SDS011;26570;50.962;5.340;2024-03-23T07:24:05;12.07;;;1.60;;
40847;SDS011;26570;50.962;5.340;2024-03-23T07:27:12;11.73;;;1.87;;
40847;SDS011;26570;50.962;5.340;2024-03-23T07:30:15;12.07;;;2.03;;
40847;SDS011;26570;50.962;5.340;2024-03-23T07:33:20;11.93;;;2.58;;
40847;SDS011;26570;50.962;5.340;2024-03-23T07:36:05;14.40;;;2.97;;
40847;SDS011;26570;50.962;5.340;2024-03-23T07:39:25;16.20;;;2.70;;
40847;SDS011;26570;50.962;5.340;2024-03-23T07:42:34;14.37;;;1.87;;
40847;SDS011;26570;50.962;5.340;2024-03-23T07:45:19;12.00;;;1.80;;
40847;SDS011;26570;50.962;5.340;2024-03-23T07:48:32;11.80;;;2.37;;
40847;SDS011;26570;50.962;5.340;2024-03-23T07:51:21;18.37;;;1.93;;
40847;SDS011;26570;50.962;5.340;2024-03-23T07:54:07;12.00;;;2.13;;
40847;SDS011;26570;50.962;5.340;2024-03-23T07:56:52;14.30;;;1.17;;
40847;SDS011;26570;50.962;5.340;2024-03-23T07:59:59;15.97;;;1.73;;
40847;SDS011;26570;50.962;5.340;2024-03-23T08:02:47;16.83;;;1.73;;
40847;SDS011;26570;50.962;5.340;2024-03-23T08:05:38;11.07;;;0.70;;
40847;SDS011;26570;50.962;5.340;2024-03-23T08:08:23;14.13;;;0.73;;
40847;SDS011;26570;50.962;5.340;2024-03-23T08:11:09;8.20;;;0.60;;
40847;SDS011;26570;50.962;5.340;2024-03-23T08:13:55;10.87;;;0.90;;
40847;SDS011;26570;50.962;5.340;2024-03-23T08:16:43;9.17;;;1.47;;
40847;SDS011;26570;50.962;5.340;2024-03-23T08:19:55;12.37;;;0.70;;
40847;SDS011;26570;50.962;5.340;2024-03-23T08:22:39;6.67;;;0.70;;
40847;SDS011;26570;50.962;5.340;2024-03-23T08:25:47;12.63;;;1.10;;
40847;SDS011;26570;50.962;5.340;2024-03-23T08:28:44;8.27;;;0.60;;
40847;SDS011;26570;50.962;5.340;2024-03-23T08:31:29;9.53;;;0.60;;
40847;SDS011;26570;50.962;5.340;2024-03-23T08:34:15;7.63;;;0.63;;
40847;SDS011;26570;50.962;5.340;2024-03-23T08:37:00;9.43;;;0.60;;
40847;SDS011;26570;50.962;5.340;2024-03-23T08:39:47;15.03;;;0.67;;
40847;SDS011;26570;50.962;5.340;2024-03-23T08:42:32;6.73;;;0.50;;
40847;SDS011;26570;50.962;5.340;2024-03-23T08:45:39;10.27;;;0.60;;
40847;SDS011;26570;50.962;5.340;2024-03-23T08:48:28;16.77;;;0.57;;
40847;SDS011;26570;50.962;5.340;2024-03-23T08:51:37;5.87;;;0.90;;
40847;SDS011;26570;50.962;5.340;2024-03-23T08:54:23;7.43;;;0.40;;
40847;SDS011;26570;50.962;5.340;2024-03-23T08:57:08;7.00;;;0.60;;
40847;SDS011;26570;50.962;5.340;2024-03-23T09:00:21;9.03;;;0.80;;
40847;SDS011;26570;50.962;5.340;2024-03-23T09:03:09;7.80;;;0.50;;
40847;SDS011;26570;50.962;5.340;2024-03-23T09:06:22;10.67;;;0.50;;
40847;SDS011;26570;50.962;5.340;2024-03-23T09:09:10;7.00;;;0.40;;
40847;SDS011;26570;50.962;5.340;2024-03-23T09:15:00;8.40;;;0.50;;
40847;SDS011;26570;50.962;5.340;2024-03-23T09:17:48;6.67;;;0.47;;
40847;SDS011;26570;50.962;5.340;2024-03-23T09:20:33;6.40;;;0.47;;
40847;SDS011;26570;50.962;5.340;2024-03-23T09:23:21;10.00;;;0.60;;
40847;SDS011;26570;50.962;5.340;2024-03-23T09:26:28;9.90;;;0.40;;
40847;SDS011;26570;50.962;5.340;2024-03-23T09:35:37;13.50;;;0.50;;
40847;SDS011;26570;50.962;5.340;2024-03-23T09:38:48;10.20;;;0.50;;
40847;SDS011;26570;50.962;5.340;2024-03-23T09:41:37;7.60;;;0.50;;
40847;SDS011;26570;50.962;5.340;2024-03-23T09:44:24;5.77;;;0.50;;
40847;SDS011;26570;50.962;5.340;2024-03-23T09:47:36;9.60;;;0.50;;
40847;SDS011;26570;50.962;5.340;2024-03-23T09:50:25;6.83;;;0.30;;
40847;SDS011;26570;50.962;5.340;2024-03-23T09:53:17;8.27;;;0.40;;
40847;SDS011;26570;50.962;5.340;2024-03-23T09:56:04;4.23;;;0.40;;
40847;SDS011;26570;50.962;5.340;2024-03-23T09:58:50;10.57;;;0.57;;
40847;SDS011;26570;50.962;5.340;2024-03-23T10:01:38;6.10;;;0.50;;
40847;SDS011;26570;50.962;5.340;2024-03-23T10:04:36;10.23;;;0.50;;
40847;SDS011;26570;50.962;5.340;2024-03-23T10:07:26;6.77;;;0.50;;
40847;SDS011;26570;50.962;5.340;2024-03-23T10:10:15;6.27;;;0.70;;
40847;SDS011;26570;50.962;5.340;2024-03-23T10:13:27;11.77;;;0.70;;
40847;SDS011;26570;50.962;5.340;2024-03-23T10:16:22;12.10;;;0.80;;
40847;SDS011;26570;50.962;5.340;2024-03-23T10:19:12;7.57;;;0.83;;
40847;SDS011;26570;50.962;5.340;2024-03-23T10:21:58;10.93;;;0.70;;
40847;SDS011;26570;50.962;5.340;2024-03-23T10:25:09;8.83;;;0.90;;
40847;SDS011;26570;50.962;5.340;2024-03-23T10:28:05;11.77;;;0.60;;
40847;SDS011;26570;50.962;5.340;2024-03-23T10:30:51;8.20;;;0.73;;
40847;SDS011;26570;50.962;5.340;2024-03-23T10:33:59;6.50;;;0.40;;
40847;SDS011;26570;50.962;5.340;2024-03-23T10:37:07;6.70;;;0.60;;
40847;SDS011;26570;50.962;5.340;2024-03-23T10:40:18;5.80;;;0.60;;
40847;SDS011;26570;50.962;5.340;2024-03-23T10:43:03;7.20;;;0.60;;
40847;SDS011;26570;50.962;5.340;2024-03-23T10:46:11;5.90;;;0.40;;
40847;SDS011;26570;50.962;5.340;2024-03-23T10:49:21;5.00;;;0.40;;
40847;SDS011;26570;50.962;5.340;2024-03-23T10:52:06;5.23;;;0.80;;
40847;SDS011;26570;50.962;5.340;2024-03-23T10:54:51;4.00;;;0.47;;
40847;SDS011;26570;50.962;5.340;2024-03-23T11:00:24;3.30;;;0.20;;
40847;SDS011;26570;50.962;5.340;2024-03-23T11:03:36;1.63;;;0.30;;
40847;SDS011;26570;50.962;5.340;2024-03-23T11:06:38;3.07;;;0.30;;
40847;SDS011;26570;50.962;5.340;2024-03-23T11:09:39;2.27;;;0.30;;
40847;SDS011;26570;50.962;5.340;2024-03-23T11:12:50;3.00;;;0.20;;
40847;SDS011;26570;50.962;5.340;2024-03-23T11:15:36;2.20;;;0.30;;
40847;SDS011;26570;50.962;5.340;2024-03-23T11:30:31;4.73;;;0.30;;
40847;SDS011;26570;50.962;5.340;2024-03-23T11:33:22;2.83;;;0.53;;
40847;SDS011;26570;50.962;5.340;2024-03-23T11:36:30;1.67;;;0.20;;
40847;SDS011;26570;50.962;5.340;2024-03-23T11:43:41;4.30;;;0.30;;
40847;SDS011;26570;50.962;5.340;2024-03-23T11:46:27;2.67;;;0.50;;
40847;SDS011;26570;50.962;5.340;2024-03-23T11:49:41;6.50;;;0.70;;
40847;SDS011;26570;50.962;5.340;2024-03-23T11:52:51;3.90;;;1.03;;
40847;SDS011;26570;50.962;5.340;2024-03-23T11:55:45;6.47;;;0.37;;
40847;SDS011;26570;50.962;5.340;2024-03-23T11:59:02;4.50;;;0.37;;
40847;SDS011;26570;50.962;5.340;2024-03-23T12:01:48;0.90;;;0.27;;
40847;SDS011;26570;50.962;5.340;2024-03-23T12:04:34;3.27;;;0.20;;
40847;SDS011;26570;50.962;5.340;2024-03-23T12:07:25;2.20;;;0.20;;
40847;SDS011;26570;50.962;5.340;2024-03-23T12:10:10;0.60;;;0.20;;
40847;SDS011;26570;50.962;5.340;2024-03-23T12:13:20;2.57;;;0.30;;
40847;SDS011;26570;50.962;5.340;2024-03-23T12:20:20;1.57;;;0.30;;
40847;SDS011;26570;50.962;5.340;2024-03-23T12:23:10;4.53;;;0.50;;
40847;SDS011;26570;50.962;5.340;2024-03-23T12:26:01;2.43;;;0.50;;
40847;SDS011;26570;50.962;5.340;2024-03-23T12:33:16;5.50;;;0.40;;
40847;SDS011;26570;50.962;5.340;2024-03-23T12:36:02;7.13;;;0.50;;
40847;SDS011;26570;50.962;5.340;2024-03-23T12:38:52;5.57;;;0.53;;
40847;SDS011;26570;50.962;5.340;2024-03-23T12:41:39;4.87;;;0.60;;
40847;SDS011;26570;50.962;5.340;2024-03-23T12:44:24;5.00;;;0.60;;
40847;SDS011;26570;50.962;5.340;2024-03-23T12:47:11;2.93;;;0.40;;
40847;SDS011;26570;50.962;5.340;2024-03-23T12:50:11;6.07;;;0.40;;
40847;SDS011;26570;50.962;5.340;2024-03-23T12:53:26;2.80;;;0.37;;
40847;SDS011;26570;50.962;5.340;2024-03-23T12:56:16;5.33;;;0.40;;
40847;SDS011;26570;50.962;5.340;2024-03-23T12:59:05;5.33;;;0.50;;
40847;SDS011;26570;50.962;5.340;2024-03-23T13:01:57;4.10;;;0.33;;
40847;SDS011;26570;50.962;5.340;2024-03-23T13:04:51;5.57;;;0.68;;
40847;SDS011;26570;50.962;5.340;2024-03-23T13:07:38;2.10;;;0.40;;
40847;SDS011;26570;50.962;5.340;2024-03-23T13:10:51;2.93;;;0.60;;
40847;SDS011;26570;50.962;5.340;2024-03-23T13:14:05;3.07;;;0.30;;
40847;SDS011;26570;50.962;5.340;2024-03-23T13:17:27;3.67;;;0.30;;
40847;SDS011;26570;50.962;5.340;2024-03-23T13:20:47;6.67;;;0.30;;
40847;SDS011;26570;50.962;5.340;2024-03-23T13:24:01;2.20;;;0.30;;
40847;SDS011;26570;50.962;5.340;2024-03-23T13:26:57;6.53;;;0.40;;
40847;SDS011;26570;50.962;5.340;2024-03-23T13:30:19;2.87;;;0.50;;
40847;SDS011;26570;50.962;5.340;2024-03-23T13:33:27;3.73;;;0.40;;
40847;SDS011;26570;50.962;5.340;2024-03-23T13:36:39;4.30;;;0.50;;
40847;SDS011;26570;50.962;5.340;2024-03-23T13:39:51;2.90;;;0.40;;
40847;SDS011;26570;50.962;5.340;2024-03-23T13:42:41;3.60;;;0.30;;
40847;SDS011;26570;50.962;5.340;2024-03-23T13:45:37;1.53;;;0.30;;
40847;SDS011;26570;50.962;5.340;2024-03-23T13:49:03;1.85;;;0.30;;
40847;SDS011;26570;50.962;5.340;2024-03-23T13:52:06;4.07;;;0.20;;
40847;SDS011;26570;50.962;5.340;2024-03-23T13:55:19;3.03;;;0.20;;
40847;SDS011;26570;50.962;5.340;2024-03-23T13:58:30;1.97;;;0.20;;
40847;SDS011;26570;50.962;5.340;2024-03-23T14:01:30;0.53;;;0.10;;
40847;SDS011;26570;50.962;5.340;2024-03-23T14:04:45;2.60;;;0.30;;
40847;SDS011;26570;50.962;5.340;2024-03-23T14:07:35;3.73;;;0.20;;
40847;SDS011;26570;50.962;5.340;2024-03-23T14:11:06;4.83;;;0.30;;
40847;SDS011;26570;50.962;5.340;2024-03-23T14:14:18;3.47;;;0.30;;
40847;SDS011;26570;50.962;5.340;2024-03-23T14:17:14;4.33;;;0.43;;
40847;SDS011;26570;50.962;5.340;2024-03-23T14:20:13;3.37;;;0.43;;
40847;SDS011;26570;50.962;5.340;2024-03-23T14:23:04;0.33;;;0.10;;
40847;SDS011;26570;50.962;5.340;2024-03-23T14:26:33;0.90;;;0.10;;
40847;SDS011;26570;50.962;5.340;2024-03-23T14:30:05;1.10;;;0.20;;
40847;SDS011;26570;50.962;5.340;2024-03-23T14:32:58;1.30;;;0.13;;
40847;SDS011;26570;50.962;5.340;2024-03-23T14:36:13;2.93;;;0.20;;
40847;SDS011;26570;50.962;5.340;2024-03-23T14:39:05;3.00;;;0.40;;
40847;SDS011;26570;50.962;5.340;2024-03-23T14:41:57;2.80;;;0.80;;
40847;SDS011;26570;50.962;5.340;2024-03-23T14:44:49;5.13;;;0.40;;
40847;SDS011;26570;50.962;5.340;2024-03-23T14:47:39;3.40;;;0.80;;
40847;SDS011;26570;50.962;5.340;2024-03-23T14:50:30;3.63;;;0.40;;
40847;SDS011;26570;50.962;5.340;2024-03-23T14:53:36;2.73;;;0.40;;
40847;SDS011;26570;50.962;5.340;2024-03-23T14:56:30;2.43;;;0.43;;
40847;SDS011;26570;50.962;5.340;2024-03-23T14:59:24;2.57;;;0.37;;
40847;SDS011;26570;50.962;5.340;2024-03-23T15:02:17;3.70;;;0.50;;
40847;SDS011;26570;50.962;5.340;2024-03-23T15:05:13;3.87;;;0.37;;
40847;SDS011;26570;50.962;5.340;2024-03-23T15:08:11;5.43;;;0.60;;
40847;SDS011;26570;50.962;5.340;2024-03-23T15:11:06;6.57;;;0.30;;
40847;SDS011;26570;50.962;5.340;2024-03-23T15:14:23;3.20;;;0.40;;
40847;SDS011;26570;50.962;5.340;2024-03-23T15:17:20;7.60;;;0.30;;
40847;SDS011;26570;50.962;5.340;2024-03-23T15:20:22;3.73;;;0.30;;
40847;SDS011;26570;50.962;5.340;2024-03-23T15:23:38;6.17;;;0.30;;
40847;SDS011;26570;50.962;5.340;2024-03-23T15:26:32;3.63;;;0.37;;
40847;SDS011;26570;50.962;5.340;2024-03-23T15:29:27;5.63;;;0.33;;
40847;SDS011;26570;50.962;5.340;2024-03-23T15:32:54;6.13;;;0.30;;
40847;SDS011;26570;50.962;5.340;2024-03-23T15:35:47;3.80;;;0.30;;
40847;SDS011;26570;50.962;5.340;2024-03-23T15:38:34;2.70;;;0.20;;
40847;SDS011;26570;50.962;5.340;2024-03-23T15:41:25;2.10;;;0.20;;
40847;SDS011;26570;50.962;5.340;2024-03-23T15:44:20;4.57;;;0.30;;
40847;SDS011;26570;50.962;5.340;2024-03-23T15:47:29;4.27;;;0.30;;
40847;SDS011;26570;50.962;5.340;2024-03-23T15:50:53;3.07;;;0.20;;
40847;SDS011;26570;50.962;5.340;2024-03-23T15:53:48;3.03;;;0.20;;
40847;SDS011;26570;50.962;5.340;2024-03-23T15:56:41;1.60;;;0.20;;
40847;SDS011;26570;50.962;5.340;2024-03-23T15:59:32;3.60;;;0.37;;
40847;SDS011;26570;50.962;5.340;2024-03-23T16:02:30;3.10;;;0.23;;
40847;SDS011;26570;50.962;5.340;2024-03-23T16:05:22;4.20;;;0.30;;
40847;SDS011;26570;50.962;5.340;2024-03-23T16:08:13;4.57;;;0.40;;
40847;SDS011;26570;50.962;5.340;2024-03-23T16:11:29;5.37;;;0.30;;
40847;SDS011;26570;50.962;5.340;2024-03-23T16:14:30;3.43;;;0.30;;
40847;SDS011;26570;50.962;5.340;2024-03-23T16:17:23;3.83;;;0.40;;
40847;SDS011;26570;50.962;5.340;2024-03-23T16:20:13;4.50;;;0.30;;
40847;SDS011;26570;50.962;5.340;2024-03-23T16:23:12;4.00;;;0.40;;
40847;SDS011;26570;50.962;5.340;2024-03-23T16:26:08;4.17;;;0.30;;
40847;SDS011;26570;50.962;5.340;2024-03-23T16:29:01;6.83;;;0.50;;
40847;SDS011;26570;50.962;5.340;2024-03-23T16:31:59;2.20;;;0.50;;
40847;SDS011;26570;50.962;5.340;2024-03-23T16:35:20;1.53;;;0.30;;
40847;SDS011;26570;50.962;5.340;2024-03-23T16:38:09;5.80;;;0.60;;
40847;SDS011;26570;50.962;5.340;2024-03-23T16:41:25;3.57;;;0.40;;
40847;SDS011;26570;50.962;5.340;2024-03-23T16:44:20;4.27;;;0.40;;
40847;SDS011;26570;50.962;5.340;2024-03-23T16:47:44;4.30;;;0.40;;
40847;SDS011;26570;50.962;5.340;2024-03-23T16:50:52;3.57;;;1.00;;
40847;SDS011;26570;50.962;5.340;2024-03-23T16:54:10;4.00;;;0.70;;
40847;SDS011;26570;50.962;5.340;2024-03-23T16:57:06;5.37;;;0.80;;
40847;SDS011;26570;50.962;5.340;2024-03-23T17:00:35;3.97;;;0.60;;
40847;SDS011;26570;50.962;5.340;2024-03-23T17:03:35;5.00;;;0.50;;
40847;SDS011;26570;50.962;5.340;2024-03-23T17:06:25;3.40;;;0.50;;
40847;SDS011;26570;50.962;5.340;2024-03-23T17:09:29;2.03;;;0.50;;
40847;SDS011;26570;50.962;5.340;2024-03-23T17:12:18;3.97;;;0.50;;
40847;SDS011;26570;50.962;5.340;2024-03-23T17:15:17;2.03;;;0.60;;
40847;SDS011;26570;50.962;5.340;2024-03-23T17:18:32;2.28;;;0.55;;
40847;SDS011;26570;50.962;5.340;2024-03-23T17:21:22;11.70;;;2.50;;
40847;SDS011;26570;50.962;5.340;2024-03-23T17:24:36;22.38;;;7.65;;
40847;SDS011;26570;50.962;5.340;2024-03-23T17:27:52;10.50;;;2.50;;
40847;SDS011;26570;50.962;5.340;2024-03-23T17:30:38;7.93;;;2.03;;
40847;SDS011;26570;50.962;5.340;2024-03-23T17:33:53;4.53;;;1.33;;
40847;SDS011;26570;50.962;5.340;2024-03-23T17:36:51;4.47;;;1.20;;
40847;SDS011;26570;50.962;5.340;2024-03-23T17:40:10;5.37;;;1.60;;
40847;SDS011;26570;50.962;5.340;2024-03-23T17:43:24;4.90;;;1.00;;
40847;SDS011;26570;50.962;5.340;2024-03-23T17:46:43;4.43;;;0.90;;
40847;SDS011;26570;50.962;5.340;2024-03-23T17:49:46;7.17;;;1.37;;
40847;SDS011;26570;50.962;5.340;2024-03-23T17:52:54;4.17;;;0.97;;
40847;SDS011;26570;50.962;5.340;2024-03-23T17:55:46;4.83;;;1.00;;
40847;SDS011;26570;50.962;5.340;2024-03-23T17:58:38;4.37;;;0.90;;
40847;SDS011;26570;50.962;5.340;2024-03-23T18:01:33;6.27;;;1.30;;
40847;SDS011;26570;50.962;5.340;2024-03-23T18:04:25;3.83;;;1.37;;
40847;SDS011;26570;50.962;5.340;2024-03-23T18:07:18;6.53;;;1.10;;
40847;SDS011;26570;50.962;5.340;2024-03-23T18:10:25;7.00;;;1.43;;
40847;SDS011;26570;50.962;5.340;2024-03-23T18:13:17;3.58;;;0.85;;
40847;SDS011;26570;50.962;5.340;2024-03-23T18:23:33;3.97;;;1.20;;
40847;SDS011;26570;50.962;5.340;2024-03-23T18:26:18;4.20;;;1.43;;
40847;SDS011;26570;50.962;5.340;2024-03-23T18:29:04;7.03;;;1.70;;
40847;SDS011;26570;50.962;5.340;2024-03-23T18:31:51;4.37;;;1.50;;
40847;SDS011;26570;50.962;5.340;2024-03-23T18:34:59;3.37;;;1.37;;
40847;SDS011;26570;50.962;5.340;2024-03-23T18:38:09;4.90;;;1.63;;
40847;SDS011;26570;50.962;5.340;2024-03-23T18:40:54;8.53;;;1.93;;
40847;SDS011;26570;50.962;5.340;2024-03-23T18:43:39;7.20;;;1.63;;
40847;SDS011;26570;50.962;5.340;2024-03-23T18:46:53;4.47;;;1.45;;
40847;SDS011;26570;50.962;5.340;2024-03-23T18:50:01;7.60;;;1.37;;
40847;SDS011;26570;50.962;5.340;2024-03-23T18:52:47;13.07;;;3.63;;
40847;SDS011;26570;50.962;5.340;2024-03-23T18:55:39;10.53;;;3.97;;
40847;SDS011;26570;50.962;5.340;2024-03-23T18:58:34;9.97;;;3.80;;
40847;SDS011;26570;50.962;5.340;2024-03-23T19:01:43;8.83;;;2.93;;
40847;SDS011;26570;50.962;5.340;2024-03-23T19:04:51;9.40;;;1.57;;
40847;SDS011;26570;50.962;5.340;2024-03-23T19:08:04;9.13;;;2.63;;
40847;SDS011;26570;50.962;5.340;2024-03-23T19:10:58;10.93;;;2.13;;